createdAt,value
2018-12-13T00:00:06.212Z,94982.77
2018-12-13T00:02:36.767Z,94983.88
2018-12-13T00:05:08.082Z,94988.74
2018-12-13T00:07:37.334Z,94982.06
2018-12-13T00:10:06.792Z,94985.03
2018-12-13T00:12:36.336Z,94986.91
2018-12-13T00:15:06.130Z,94993.50
2018-12-13T00:17:35.413Z,94988.14
2018-12-13T00:20:05.134Z,94989.89
2018-12-13T00:22:34.523Z,94988.98
2018-12-13T00:25:04.203Z,94992.77
2018-12-13T00:27:33.599Z,94995.81
2018-12-13T00:30:03.022Z,94999.25
2018-12-13T00:32:32.480Z,95001.66
2018-12-13T00:35:02.207Z,95002.88
2018-12-13T00:37:31.468Z,95002.03
2018-12-13T00:40:00.662Z,95000.05
2018-12-13T00:42:30.124Z,95000.39
2018-12-13T00:44:59.780Z,95009.09
2018-12-13T00:47:29.205Z,95007.95
2018-12-13T00:49:58.505Z,95006.33
2018-12-13T00:52:28.134Z,95009.58
2018-12-13T00:54:57.724Z,95015.68
2018-12-13T00:57:27.441Z,95014.45
2018-12-13T00:59:56.840Z,95011.03
2018-12-13T01:02:26.473Z,95010.34
2018-12-13T01:04:56.095Z,95010.69
2018-12-13T01:07:25.352Z,95012.47
2018-12-13T01:09:54.891Z,95008.14
2018-12-13T01:12:24.111Z,95006.22
2018-12-13T01:14:53.570Z,95002.20
2018-12-13T01:17:23.020Z,95007.22
2018-12-13T01:19:52.350Z,95013.11
2018-12-13T01:22:21.892Z,95022.33
2018-12-13T01:24:51.315Z,95024.27
2018-12-13T01:27:20.845Z,95019.00
2018-12-13T01:29:50.252Z,95028.45
2018-12-13T01:32:19.712Z,95034.56
2018-12-13T01:34:49.287Z,95032.61
2018-12-13T01:37:19.000Z,95029.47
2018-12-13T01:39:48.779Z,95038.45
2018-12-13T01:42:18.167Z,95024.50
2018-12-13T01:44:47.843Z,95027.23
2018-12-13T01:47:17.531Z,95027.89
2018-12-13T01:49:46.859Z,95028.08
2018-12-13T01:52:16.310Z,95028.53
2018-12-13T01:54:46.914Z,95027.73
2018-12-13T01:57:16.700Z,95022.61
2018-12-13T01:59:46.298Z,95030.31
2018-12-13T02:02:15.629Z,95032.55
2018-12-13T02:04:45.224Z,95026.64
2018-12-13T02:07:15.060Z,95026.97
2018-12-13T02:09:44.643Z,95018.31
2018-12-13T02:12:14.064Z,95017.99
2018-12-13T02:14:43.755Z,95017.48
2018-12-13T02:17:13.161Z,95016.50
2018-12-13T02:19:42.647Z,95020.36
2018-12-13T02:22:11.949Z,95012.66
2018-12-13T02:24:41.500Z,95011.83
2018-12-13T02:27:10.888Z,95012.52
2018-12-13T02:29:40.304Z,95010.73
2018-12-13T02:32:09.683Z,95008.31
2018-12-13T02:34:39.347Z,95004.48
2018-12-13T02:37:09.083Z,95008.13
2018-12-13T02:39:38.564Z,95007.98
2018-12-13T02:42:08.072Z,95000.79
2018-12-13T02:44:37.460Z,95001.59
2018-12-13T02:47:06.725Z,95007.36
2018-12-13T02:49:36.313Z,95004.69
2018-12-13T02:52:05.862Z,95012.69
2018-12-13T02:54:35.233Z,95009.95
2018-12-13T02:57:04.491Z,95014.95
2018-12-13T02:59:34.227Z,95012.70
2018-12-13T03:02:03.816Z,95022.27
2018-12-13T03:04:33.164Z,95024.18
2018-12-13T03:07:03.320Z,95027.66
2018-12-13T03:09:33.017Z,95024.15
2018-12-13T03:12:02.636Z,95022.72
2018-12-13T03:14:31.908Z,95019.69
2018-12-13T03:17:01.254Z,95029.02
2018-12-13T03:19:30.788Z,95032.20
2018-12-13T03:22:00.333Z,95026.94
2018-12-13T03:24:31.087Z,95026.47
2018-12-13T03:27:00.869Z,95021.73
2018-12-13T03:29:30.343Z,95017.33
2018-12-13T03:31:59.814Z,95021.98
2018-12-13T03:34:29.184Z,95021.81
2018-12-13T03:36:59.078Z,95012.70
2018-12-13T03:39:28.671Z,95009.49
2018-12-13T03:41:58.483Z,95016.22
2018-12-13T03:44:27.900Z,95012.55
2018-12-13T03:46:57.367Z,95016.67
2018-12-13T03:49:26.735Z,95008.84
2018-12-13T03:51:56.127Z,95009.45
2018-12-13T03:54:25.819Z,95006.05
2018-12-13T03:56:55.530Z,94999.84
2018-12-13T03:59:25.142Z,95008.34
2018-12-13T04:01:55.346Z,95005.16
2018-12-13T04:04:24.904Z,94925.09
2018-12-13T04:06:54.569Z,95016.20
2018-12-13T04:09:24.483Z,95007.69
2018-12-13T04:11:53.894Z,95010.43
2018-12-13T04:14:23.527Z,94994.13
2018-12-13T04:16:52.862Z,95009.95
2018-12-13T04:19:22.165Z,95014.80
2018-12-13T04:21:51.742Z,95011.58
2018-12-13T04:24:21.335Z,95012.22
2018-12-13T04:26:50.891Z,95016.87
2018-12-13T04:29:20.570Z,95017.99
2018-12-13T04:31:50.265Z,95015.42
2018-12-13T04:34:19.759Z,95009.34
2018-12-13T04:36:49.521Z,94923.52
2018-12-13T04:39:19.105Z,95016.39
2018-12-13T04:41:48.736Z,95021.02
2018-12-13T04:44:18.260Z,95026.30
2018-12-13T04:46:48.499Z,95030.30
2018-12-13T04:49:17.784Z,95032.21
2018-12-13T04:51:47.027Z,95028.20
2018-12-13T04:54:16.922Z,95029.00
2018-12-13T04:56:46.125Z,95031.20
2018-12-13T04:59:15.931Z,95031.97
2018-12-13T05:01:45.896Z,95032.92
2018-12-13T05:04:15.355Z,95034.67
2018-12-13T05:06:45.005Z,95039.27
2018-12-13T05:09:14.619Z,95037.97
2018-12-13T05:11:43.864Z,95041.28
2018-12-13T05:14:13.170Z,95034.84
2018-12-13T05:16:42.655Z,95045.19
2018-12-13T05:19:12.004Z,95042.77
2018-12-13T05:21:41.606Z,95047.20
2018-12-13T05:24:11.005Z,95045.91
2018-12-13T05:26:40.734Z,95049.88
2018-12-13T05:29:10.033Z,95046.17
2018-12-13T05:31:39.604Z,95049.25
2018-12-13T05:34:09.441Z,95046.16
2018-12-13T05:36:38.948Z,95048.86
2018-12-13T05:39:09.229Z,95053.41
2018-12-13T05:41:38.789Z,95054.53
2018-12-13T05:44:08.159Z,95057.72
2018-12-13T05:46:37.525Z,95051.30
2018-12-13T05:49:06.887Z,95061.48
2018-12-13T05:51:36.296Z,95056.30
2018-12-13T05:54:05.930Z,95058.84
2018-12-13T05:56:35.850Z,95067.39
2018-12-13T05:59:06.225Z,95064.06
2018-12-13T06:01:35.965Z,95064.98
2018-12-13T06:04:05.462Z,95062.64
2018-12-13T06:06:35.011Z,95060.73
2018-12-13T06:09:06.340Z,95064.53
2018-12-13T06:11:36.076Z,95057.44
2018-12-13T06:14:05.510Z,95058.09
2018-12-13T06:16:35.520Z,95068.72
2018-12-13T06:19:05.039Z,95068.74
2018-12-13T06:21:37.052Z,95063.88
2018-12-13T06:24:06.406Z,95069.86
2018-12-13T06:26:36.076Z,95067.23
2018-12-13T06:29:05.504Z,95063.97
2018-12-13T06:31:35.022Z,95061.16
2018-12-13T06:34:04.546Z,95065.81
2018-12-13T06:36:34.116Z,95057.58
2018-12-13T06:39:06.022Z,95063.89
2018-12-13T06:41:36.526Z,95061.39
2018-12-13T06:44:06.232Z,95061.95
2018-12-13T06:46:35.600Z,95059.06
2018-12-13T06:49:04.968Z,95060.69
2018-12-13T06:51:34.811Z,95049.55
2018-12-13T06:54:04.314Z,95053.13
2018-12-13T06:56:33.996Z,95052.95
2018-12-13T06:59:03.580Z,95053.64
2018-12-13T07:01:33.003Z,95049.50
2018-12-13T07:04:02.554Z,95051.97
2018-12-13T07:06:32.048Z,95051.39
2018-12-13T07:09:01.402Z,95049.84
2018-12-13T07:11:30.772Z,95053.39
2018-12-13T07:14:00.462Z,95050.77
2018-12-13T07:16:30.222Z,95053.53
2018-12-13T07:19:00.459Z,95049.23
2018-12-13T07:21:30.106Z,95052.27
2018-12-13T07:23:59.713Z,95057.86
2018-12-13T07:26:29.676Z,95060.09
2018-12-13T07:28:59.344Z,95050.77
2018-12-13T07:31:29.387Z,95056.38
2018-12-13T07:33:58.944Z,95059.86
2018-12-13T07:36:28.514Z,95056.92
2018-12-13T07:38:58.032Z,95063.13
2018-12-13T07:41:28.486Z,95055.05
2018-12-13T07:43:58.432Z,95055.34
2018-12-13T07:46:27.762Z,95050.98
2018-12-13T07:48:57.020Z,95049.17
2018-12-13T07:51:26.957Z,95045.73
2018-12-13T07:53:56.479Z,95048.84
2018-12-13T07:56:26.145Z,95038.26
2018-12-13T07:58:56.200Z,95032.95
2018-12-13T08:01:25.830Z,95037.37
2018-12-13T08:03:55.892Z,95035.15
2018-12-13T08:06:25.772Z,95037.88
2018-12-13T08:08:55.102Z,95040.09
2018-12-13T08:11:24.817Z,95037.72
2018-12-13T08:13:54.671Z,95042.77
2018-12-13T08:16:24.037Z,95043.78
2018-12-13T08:18:55.560Z,95038.44
2018-12-13T08:21:26.849Z,95039.08
2018-12-13T08:23:56.380Z,95040.70
2018-12-13T08:26:25.799Z,95036.08
2018-12-13T08:28:55.665Z,95036.34
2018-12-13T08:31:24.981Z,95040.02
2018-12-13T08:33:54.510Z,95037.77
2018-12-13T08:36:25.319Z,95032.80
2018-12-13T08:38:54.969Z,95034.71
2018-12-13T08:41:24.480Z,95033.55
2018-12-13T08:43:54.066Z,95038.95
2018-12-13T08:46:23.730Z,95034.17
2018-12-13T08:48:53.257Z,95029.41
2018-12-13T08:51:22.838Z,95030.31
2018-12-13T08:53:52.293Z,95026.41
2018-12-13T08:56:21.526Z,95023.70
2018-12-13T08:58:50.940Z,95016.69
2018-12-13T09:01:20.799Z,95013.67
2018-12-13T09:03:50.513Z,95010.66
2018-12-13T09:06:20.365Z,95009.25
2018-12-13T09:08:50.135Z,95004.92
2018-12-13T09:11:19.778Z,94998.66
2018-12-13T09:13:49.406Z,94999.16
2018-12-13T09:16:19.055Z,95003.84
2018-12-13T09:18:48.880Z,94999.11
2018-12-13T09:21:18.804Z,95000.09
2018-12-13T09:23:48.013Z,94990.52
2018-12-13T09:26:17.584Z,94991.47
2018-12-13T09:28:47.323Z,94989.45
2018-12-13T09:31:16.737Z,94983.34
2018-12-13T09:33:47.606Z,94977.85
2018-12-13T09:36:17.395Z,94976.73
2018-12-13T09:38:47.099Z,94968.08
2018-12-13T09:41:16.555Z,94956.22
2018-12-13T09:43:46.170Z,94962.53
2018-12-13T09:46:15.691Z,94956.23
2018-12-13T09:48:45.271Z,94960.33
2018-12-13T09:51:14.572Z,94951.26
2018-12-13T09:53:44.422Z,94947.66
2018-12-13T09:56:13.965Z,94946.41
2018-12-13T09:58:43.231Z,94939.92
2018-12-13T10:01:13.158Z,94940.91
2018-12-13T10:03:42.620Z,94944.85
2018-12-13T10:06:12.224Z,94934.35
2018-12-13T10:08:46.229Z,94934.50
2018-12-13T10:11:13.605Z,94937.72
2018-12-13T10:13:43.491Z,94934.96
2018-12-13T10:16:13.129Z,94934.22
2018-12-13T10:18:42.852Z,94929.81
2018-12-13T10:21:12.150Z,94931.07
2018-12-13T10:23:41.460Z,94918.67
2018-12-13T10:26:11.161Z,94905.53
2018-12-13T10:28:41.191Z,94901.94
2018-12-13T10:31:10.723Z,94900.86
2018-12-13T10:33:41.465Z,94900.43
2018-12-13T10:36:11.074Z,94885.39
2018-12-13T10:38:40.510Z,94887.69
2018-12-13T10:41:10.379Z,94878.67
2018-12-13T10:43:39.728Z,94879.66
2018-12-13T10:46:09.361Z,94872.88
2018-12-13T10:48:38.866Z,94868.69
2018-12-13T10:51:08.473Z,94867.46
2018-12-13T10:53:38.063Z,94867.25
2018-12-13T10:56:07.623Z,94859.07
2018-12-13T10:58:36.892Z,94854.14
2018-12-13T11:01:11.920Z,94849.27
2018-12-13T11:03:41.403Z,94852.84
2018-12-13T11:06:10.831Z,94850.97
2018-12-13T11:08:40.559Z,94844.36
2018-12-13T11:11:09.895Z,94853.23
2018-12-13T11:13:39.429Z,94841.98
2018-12-13T11:16:09.260Z,94839.26
2018-12-13T11:18:38.745Z,94844.70
2018-12-13T11:21:08.503Z,94848.89
2018-12-13T11:23:37.731Z,94837.11
2018-12-13T11:26:07.283Z,94831.23
2018-12-13T11:30:45.170Z,94832.00
2018-12-13T11:33:14.699Z,94823.81
2018-12-13T11:35:44.336Z,94833.23
2018-12-13T11:38:14.245Z,94831.58
2018-12-13T11:40:43.818Z,94828.55
2018-12-13T11:43:13.496Z,94829.46
2018-12-13T11:45:43.106Z,94831.92
2018-12-13T11:48:12.458Z,94828.76
2018-12-13T11:50:42.104Z,94825.07
2018-12-13T11:53:11.556Z,94822.98
2018-12-13T11:55:41.761Z,94820.76
2018-12-13T11:58:12.794Z,94820.46
2018-12-13T12:00:42.418Z,94823.41
2018-12-13T12:03:12.082Z,94830.20
2018-12-13T12:05:42.772Z,94824.81
2018-12-13T12:08:12.763Z,94828.42
2018-12-13T12:10:42.255Z,94812.96
2018-12-13T12:13:11.716Z,94822.34
2018-12-13T12:15:41.208Z,94817.03
2018-12-13T12:18:10.619Z,94813.34
2018-12-13T12:20:40.079Z,94804.80
2018-12-13T12:23:09.513Z,94804.39
2018-12-13T12:25:39.322Z,94801.53
2018-12-13T12:28:08.892Z,94798.00
2018-12-13T12:30:38.180Z,94800.91
2018-12-13T12:33:07.637Z,94790.98
2018-12-13T12:35:37.699Z,94796.98
2018-12-13T12:38:07.235Z,94795.92
2018-12-13T12:40:36.631Z,94797.19
2018-12-13T12:43:06.472Z,94797.70
2018-12-13T12:45:36.205Z,94792.81
2018-12-13T12:48:06.071Z,94794.15
2018-12-13T12:50:35.612Z,94790.78
2018-12-13T12:53:05.245Z,94797.81
2018-12-13T12:55:34.896Z,94797.36
2018-12-13T12:58:04.622Z,94799.49
2018-12-13T13:00:34.232Z,94802.08
2018-12-13T13:03:04.234Z,94800.88
2018-12-13T13:05:33.799Z,94799.36
2018-12-13T13:08:03.625Z,94804.31
2018-12-13T13:10:32.998Z,94798.88
2018-12-13T13:13:02.807Z,94801.41
2018-12-13T13:15:32.767Z,94798.75
2018-12-13T13:18:02.258Z,94805.02
2018-12-13T13:20:31.909Z,94805.16
2018-12-13T13:23:01.691Z,94809.22
2018-12-13T13:25:32.356Z,94818.63
2018-12-13T13:28:02.249Z,94815.09
2018-12-13T13:30:31.572Z,94816.31
2018-12-13T13:33:00.925Z,94820.06
2018-12-13T13:35:30.446Z,94830.75
2018-12-13T13:37:59.918Z,94829.41
2018-12-13T13:40:29.554Z,94827.58
2018-12-13T13:42:59.422Z,94826.98
2018-12-13T13:45:28.768Z,94833.90
2018-12-13T13:47:58.354Z,94830.97
2018-12-13T13:50:28.014Z,94834.56
2018-12-13T13:52:57.554Z,94835.80
2018-12-13T13:55:27.730Z,94828.30
2018-12-13T13:57:57.397Z,94833.69
2018-12-13T14:00:26.706Z,94841.54
2018-12-13T14:02:56.053Z,94838.98
2018-12-13T14:05:25.342Z,94828.46
2018-12-13T14:07:54.883Z,94827.63
2018-12-13T14:10:24.824Z,94829.19
2018-12-13T14:12:54.204Z,94827.84
2018-12-13T14:15:23.754Z,94828.33
2018-12-13T14:17:53.609Z,94830.65
2018-12-13T14:20:23.051Z,94832.84
2018-12-13T14:22:53.016Z,94822.39
2018-12-13T14:25:22.699Z,94835.62
2018-12-13T14:27:52.285Z,94832.65
2018-12-13T14:30:21.693Z,94836.91
2018-12-13T14:32:51.504Z,94835.91
2018-12-13T14:35:20.813Z,94836.19
2018-12-13T14:37:50.527Z,94834.27
2018-12-13T14:40:20.147Z,94835.50
2018-12-13T14:42:51.929Z,94836.67
2018-12-13T14:45:21.159Z,94832.13
2018-12-13T14:47:50.808Z,94834.64
2018-12-13T14:50:20.564Z,94826.96
2018-12-13T14:52:50.110Z,94828.61
2018-12-13T14:55:19.871Z,94826.62
2018-12-13T14:57:49.573Z,94823.05
2018-12-13T15:00:18.944Z,94827.90
2018-12-13T15:02:48.440Z,94821.33
2018-12-13T15:05:17.951Z,94824.16
2018-12-13T15:07:47.238Z,94824.05
2018-12-13T15:10:17.116Z,94832.08
2018-12-13T15:12:46.653Z,94834.71
2018-12-13T15:15:15.953Z,94842.10
2018-12-13T15:17:45.644Z,94836.05
2018-12-13T15:20:15.213Z,94844.17
2018-12-13T15:22:44.787Z,94842.16
2018-12-13T15:25:14.241Z,94838.09
2018-12-13T15:27:43.732Z,94846.07
2018-12-13T15:30:13.377Z,94841.13
2018-12-13T15:32:42.912Z,94842.41
2018-12-13T15:35:12.302Z,94842.42
2018-12-13T15:37:42.172Z,94839.24
2018-12-13T15:40:11.855Z,94840.70
2018-12-13T15:42:41.347Z,94839.05
2018-12-13T15:45:11.616Z,94830.11
2018-12-13T15:47:41.188Z,94832.77
2018-12-13T15:50:11.056Z,94828.80
2018-12-13T15:52:40.547Z,94834.02
2018-12-13T15:55:10.090Z,94826.56
2018-12-13T15:57:39.754Z,94835.05
2018-12-13T16:00:09.825Z,94837.73
2018-12-13T16:02:41.404Z,94838.55
2018-12-13T16:05:10.771Z,94840.94
2018-12-13T16:07:40.407Z,94840.78
2018-12-13T16:10:09.986Z,94839.39
2018-12-13T16:12:39.762Z,94834.02
2018-12-13T16:15:09.656Z,94840.31
2018-12-13T16:17:39.562Z,94837.59
2018-12-13T16:20:09.220Z,94830.48
2018-12-13T16:22:38.598Z,94820.53
2018-12-13T16:25:08.437Z,94811.87
2018-12-13T16:27:37.795Z,94825.41
2018-12-13T16:30:08.186Z,94830.72
2018-12-13T16:32:37.764Z,94830.67
2018-12-13T16:35:07.116Z,94836.15
2018-12-13T16:37:36.502Z,94821.55
2018-12-13T16:40:10.355Z,94823.23
2018-12-13T16:42:38.107Z,94833.39
2018-12-13T16:45:08.353Z,94828.29
2018-12-13T16:47:37.961Z,94833.11
2018-12-13T16:50:08.109Z,94835.80
2018-12-13T16:52:38.018Z,94834.24
2018-12-13T16:55:07.597Z,94835.75
2018-12-13T16:57:37.303Z,94831.91
2018-12-13T17:00:07.727Z,94827.26
2018-12-13T17:02:37.057Z,94825.09
2018-12-13T17:05:06.799Z,94826.53
2018-12-13T17:07:37.267Z,94820.48
2018-12-13T17:10:08.713Z,94820.77
2018-12-13T17:12:38.328Z,94821.45
2018-12-13T17:15:08.949Z,94818.66
2018-12-13T17:17:38.482Z,94823.80
2018-12-13T17:20:08.190Z,94823.11
2018-12-13T17:22:38.013Z,94815.36
2018-12-13T17:25:07.497Z,94821.03
2018-12-13T17:27:37.014Z,94822.22
2018-12-13T17:30:08.539Z,94815.31
2018-12-13T17:32:37.881Z,94820.86
2018-12-13T17:35:07.581Z,94826.22
2018-12-13T17:37:37.367Z,94834.82
2018-12-13T17:40:07.046Z,94835.45
2018-12-13T17:42:37.230Z,94837.08
2018-12-13T17:45:07.176Z,94839.91
2018-12-13T17:47:36.905Z,94851.88
2018-12-13T17:50:06.669Z,94849.13
2018-12-13T17:52:36.475Z,94846.41
2018-12-13T17:55:06.432Z,94840.10
2018-12-13T17:57:35.901Z,94846.25
2018-12-13T18:00:06.819Z,94845.56
2018-12-13T18:02:36.103Z,94837.58
2018-12-13T18:05:05.752Z,94845.98
2018-12-13T18:07:35.492Z,94835.53
2018-12-13T18:10:05.971Z,94835.44
2018-12-13T18:12:35.728Z,94834.88
2018-12-13T18:15:05.859Z,94832.81
2018-12-13T18:17:35.553Z,94837.05
2018-12-13T18:20:05.907Z,94839.60
2018-12-13T18:22:35.443Z,94838.55
2018-12-13T18:25:05.333Z,94831.36
2018-12-13T18:27:35.000Z,94838.59
2018-12-13T18:30:04.678Z,94830.57
2018-12-13T18:32:34.002Z,94827.20
2018-12-13T18:35:03.456Z,94832.91
2018-12-13T18:37:32.833Z,94839.88
2018-12-13T18:40:02.376Z,94836.47
2018-12-13T18:42:31.849Z,94837.66
2018-12-13T18:45:01.527Z,94844.27
2018-12-13T18:47:31.549Z,94847.43
2018-12-13T18:50:00.969Z,94843.23
2018-12-13T18:52:30.530Z,94837.75
2018-12-13T18:55:00.053Z,94838.81
2018-12-13T18:57:29.556Z,94837.83
2018-12-13T18:59:58.849Z,94837.11
2018-12-13T19:02:28.098Z,94840.52
2018-12-13T19:04:57.692Z,94847.28
2018-12-13T19:07:27.386Z,94843.30
2018-12-13T19:09:57.123Z,94846.20
2018-12-13T19:12:26.704Z,94844.30
2018-12-13T19:14:56.289Z,94853.03
2018-12-13T19:17:25.960Z,94854.86
2018-12-13T19:19:55.595Z,94840.08
2018-12-13T19:22:26.566Z,94839.34
2018-12-13T19:24:55.892Z,94835.91
2018-12-13T19:27:25.164Z,94829.44
2018-12-13T19:29:54.795Z,94835.91
2018-12-13T19:32:24.245Z,94840.02
2018-12-13T19:35:00.168Z,94844.12
2018-12-13T19:37:25.660Z,94846.76
2018-12-13T19:39:55.343Z,94859.70
2018-12-13T19:42:24.860Z,94859.16
2018-12-13T19:44:54.566Z,94853.66
2018-12-13T19:47:24.160Z,94852.84
2018-12-13T19:49:53.787Z,94842.80
2018-12-13T19:52:23.670Z,94838.06
2018-12-13T19:54:53.023Z,94847.87
2018-12-13T19:57:22.947Z,94859.16
2018-12-13T19:59:52.288Z,94854.18
2018-12-13T20:02:21.848Z,94851.74
2018-12-13T20:04:51.591Z,94856.96
2018-12-13T20:07:21.201Z,94861.17
2018-12-13T20:09:50.648Z,94862.70
2018-12-13T20:12:20.539Z,94855.78
2018-12-13T20:14:50.401Z,94862.39
2018-12-13T20:17:20.238Z,94850.70
2018-12-13T20:19:49.780Z,94847.98
2018-12-13T20:22:19.195Z,94853.92
2018-12-13T20:24:48.961Z,94596.11
2018-12-13T20:27:18.392Z,94851.16
2018-12-13T20:29:47.691Z,94842.28
2018-12-13T20:32:17.882Z,94837.62
2018-12-13T20:34:47.470Z,94844.45
2018-12-13T20:37:17.066Z,94836.84
2018-12-13T20:39:46.744Z,94829.40
2018-12-13T20:42:16.192Z,94832.98
2018-12-13T20:44:45.787Z,94828.35
2018-12-13T20:47:15.439Z,94825.78
2018-12-13T20:49:44.808Z,94822.12
2018-12-13T20:52:14.193Z,94822.62
2018-12-13T20:54:43.766Z,94815.16
2018-12-13T20:57:13.147Z,94809.43
2018-12-13T20:59:42.612Z,94813.92
2018-12-13T21:02:12.588Z,94818.61
2018-12-13T21:04:41.793Z,94815.61
2018-12-13T21:07:16.499Z,94811.89
2018-12-13T21:09:45.886Z,94813.59
2018-12-13T21:12:15.868Z,94812.84
2018-12-13T21:14:45.452Z,94805.90
2018-12-13T21:17:15.008Z,94805.56
2018-12-13T21:19:44.572Z,94811.00
2018-12-13T21:22:14.140Z,94819.45
2018-12-13T21:24:43.495Z,94817.59
2018-12-13T21:27:12.788Z,94809.73
2018-12-13T21:29:42.608Z,94808.44
2018-12-13T21:32:12.116Z,94811.37
2018-12-13T21:34:41.922Z,94807.69
2018-12-13T21:37:11.601Z,94815.34
2018-12-13T21:39:41.279Z,94816.41
2018-12-13T21:42:10.783Z,94766.69
2018-12-13T21:44:40.701Z,94822.44
2018-12-13T21:47:10.305Z,94826.00
2018-12-13T21:49:39.829Z,94833.89
2018-12-13T21:52:09.660Z,94836.42
2018-12-13T21:54:39.118Z,94829.84
2018-12-13T21:57:08.544Z,94818.37
2018-12-13T21:59:38.476Z,94823.06
2018-12-13T22:02:07.836Z,94816.72
2018-12-13T22:04:37.693Z,94818.42
2018-12-13T22:07:07.431Z,94825.37
2018-12-13T22:09:36.886Z,94817.46
2018-12-13T22:12:06.624Z,94816.05
2018-12-13T22:14:36.076Z,94813.38
2018-12-13T22:17:05.507Z,94812.70
2018-12-13T22:19:35.027Z,94809.02
2018-12-13T22:22:04.631Z,94809.06
2018-12-13T22:24:34.485Z,94814.73
2018-12-13T22:27:03.935Z,94819.42
2018-12-13T22:29:33.504Z,94803.87
2018-12-13T22:32:04.029Z,94810.05
2018-12-13T22:34:33.710Z,94807.09
2018-12-13T22:37:03.535Z,94803.86
2018-12-13T22:39:33.251Z,94790.75
2018-12-13T22:42:02.715Z,94797.18
2018-12-13T22:44:32.097Z,94794.66
2018-12-13T22:47:01.857Z,94802.09
2018-12-13T22:49:31.439Z,94792.63
2018-12-13T22:52:01.028Z,94760.78
2018-12-13T22:54:30.577Z,94775.95
2018-12-13T22:56:59.884Z,94782.05
2018-12-13T22:59:29.495Z,94788.09
2018-12-13T23:01:58.944Z,94781.14
2018-12-13T23:04:28.550Z,94804.14
2018-12-13T23:06:58.085Z,94801.04
2018-12-13T23:09:27.539Z,94802.42
2018-12-13T23:11:57.506Z,94813.52
2018-12-13T23:14:27.665Z,94810.43
2018-12-13T23:16:57.194Z,94809.53
2018-12-13T23:19:26.854Z,94814.27
2018-12-13T23:21:56.113Z,94803.80
2018-12-13T23:24:25.517Z,94806.30
2018-12-13T23:26:55.271Z,94800.27
2018-12-13T23:29:24.834Z,94801.55
2018-12-13T23:31:54.403Z,94796.32
2018-12-13T23:34:24.104Z,94797.94
2018-12-13T23:36:54.362Z,94813.18
2018-12-13T23:39:23.757Z,94806.72
2018-12-13T23:41:53.154Z,94807.97
2018-12-13T23:44:22.696Z,94801.78
2018-12-13T23:46:52.403Z,94801.63
2018-12-13T23:49:22.174Z,94807.17
2018-12-13T23:51:51.728Z,94810.48
2018-12-13T23:54:21.009Z,94823.27
2018-12-13T23:56:50.683Z,94821.80
2018-12-13T23:59:20.150Z,94824.39
